Strona główna
METAR-TAF:

METAR-TAF

Lotnisko :

Wiesbaden, Niemcy

Szerokość geograficzna: 50-03N, Długość geograficzna: 008-20E, wysokość: 140 m

Aktualna obserwacja pogody

Raport powstał 15 minut temu, godzina 00:56 UTC
Wiatr 7 kt od wschód
Temperatura 9°C
Wilgotność 49%
Ciśnienie 1024 hPa
Widzialność 10 km lub więcej
bezchmurnie

METAR: ETOU 050056Z AUTO 09007KT 9999 CLR 09/M01 A3024 RMK AO2 SLP244 T00921007 $

czas: 03:11 (01:11 UTC)

Prognoza

Raport powstał 10 godziny i 1 minut temu, godzina 15:10 UTC
Prognoza ważna od 03 godzina 15 UTC do 04 godzina 18 UTC
Wiatr 10 kt od zachodnio-północny zachód w porywach dochodzący do 15 kt
Widzialność 10 km lub więcej
Przerywane chmury na wysokości 5000 ft
Stopniowe zmiany
od 04 godzina 00 UTC do 04 godzina 01 UTC
Wiatr 6 kt od zachód
Widzialność: 0604 m
Przerywane chmury na wysokości 4000 ft

TAF: ETOU 031510Z 0315/0418 30010G15KT 9999 BKN050 QNH3000INS BECMG 0400/0401 27006KT 9999 BKN040 QNH3017INS TX15/0315Z TN03/0405Z LAST NO AMDS AFT 0320 NEXT 0604

Obserwacja i prognoza pogody dla ponad 4000 lotnisk (raport METAR i TAF).

Dostępne stacje oznaczono żółtymi i czerwonymi punktami na mapie.

Najedź kursorem aby zobaczyć nazwę stacji.

Kliknij aby zobaczyć obserwacje i prognozy pogody.

Aby zmienić mapę: kliknij na zielony przycisk z czarnym krzyżykiem, aby powiększyć; na zielony przycisk z myślnikiem, aby pomniejszyć; na zielone strzałki, aby przejść do map sąsiednich.


METAR-TAF: